sensor_id;sensor_type;location;lat;lon;timestamp;P1;durP1;ratioP1;P2;durP2;ratioP2
23539;SDS011;11947;50.810;4.394;2023-05-10T00:01:21;25.08;;;10.85;;
23539;SDS011;11947;50.810;4.394;2023-05-10T00:03:46;32.65;;;9.73;;
23539;SDS011;11947;50.810;4.394;2023-05-10T00:06:12;30.33;;;10.70;;
23539;SDS011;11947;50.810;4.394;2023-05-10T00:08:38;28.92;;;9.70;;
23539;SDS011;11947;50.810;4.394;2023-05-10T00:11:03;32.75;;;11.10;;
23539;SDS011;11947;50.810;4.394;2023-05-10T00:13:29;33.53;;;10.60;;
23539;SDS011;11947;50.810;4.394;2023-05-10T00:15:55;25.75;;;10.30;;
23539;SDS011;11947;50.810;4.394;2023-05-10T00:18:20;27.08;;;9.98;;
23539;SDS011;11947;50.810;4.394;2023-05-10T00:20:46;33.15;;;10.63;;
23539;SDS011;11947;50.810;4.394;2023-05-10T00:23:12;28.42;;;10.48;;
23539;SDS011;11947;50.810;4.394;2023-05-10T00:25:37;25.75;;;10.27;;
23539;SDS011;11947;50.810;4.394;2023-05-10T00:28:03;28.73;;;10.80;;
23539;SDS011;11947;50.810;4.394;2023-05-10T00:30:29;30.73;;;11.00;;
23539;SDS011;11947;50.810;4.394;2023-05-10T00:32:54;26.98;;;10.32;;
23539;SDS011;11947;50.810;4.394;2023-05-10T00:35:20;27.52;;;10.23;;
23539;SDS011;11947;50.810;4.394;2023-05-10T00:37:46;27.90;;;10.52;;
23539;SDS011;11947;50.810;4.394;2023-05-10T00:40:12;22.58;;;10.10;;
23539;SDS011;11947;50.810;4.394;2023-05-10T00:42:38;27.00;;;11.20;;
23539;SDS011;11947;50.810;4.394;2023-05-10T00:45:04;31.77;;;11.63;;
23539;SDS011;11947;50.810;4.394;2023-05-10T00:47:30;26.63;;;10.80;;
23539;SDS011;11947;50.810;4.394;2023-05-10T00:49:57;30.38;;;10.52;;
23539;SDS011;11947;50.810;4.394;2023-05-10T00:52:23;31.88;;;11.30;;
23539;SDS011;11947;50.810;4.394;2023-05-10T00:54:50;32.00;;;11.63;;
23539;SDS011;11947;50.810;4.394;2023-05-10T00:57:17;29.08;;;11.68;;
23539;SDS011;11947;50.810;4.394;2023-05-10T00:59:42;32.83;;;12.32;;
23539;SDS011;11947;50.810;4.394;2023-05-10T01:02:08;32.30;;;12.57;;
23539;SDS011;11947;50.810;4.394;2023-05-10T01:04:34;33.17;;;12.57;;
23539;SDS011;11947;50.810;4.394;2023-05-10T01:07:00;31.65;;;12.63;;
23539;SDS011;11947;50.810;4.394;2023-05-10T01:09:26;32.45;;;12.23;;
23539;SDS011;11947;50.810;4.394;2023-05-10T01:11:53;32.05;;;11.85;;
23539;SDS011;11947;50.810;4.394;2023-05-10T01:14:20;36.50;;;12.68;;
23539;SDS011;11947;50.810;4.394;2023-05-10T01:16:47;35.80;;;12.63;;
23539;SDS011;11947;50.810;4.394;2023-05-10T01:19:24;32.78;;;12.90;;
23539;SDS011;11947;50.810;4.394;2023-05-10T01:21:56;38.72;;;12.93;;
23539;SDS011;11947;50.810;4.394;2023-05-10T01:35:23;38.05;;;14.07;;
23539;SDS011;11947;50.810;4.394;2023-05-10T01:38:28;35.75;;;13.85;;
23539;SDS011;11947;50.810;4.394;2023-05-10T01:43:30;34.22;;;14.05;;
23539;SDS011;11947;50.810;4.394;2023-05-10T01:46:09;35.78;;;13.85;;
23539;SDS011;11947;50.810;4.394;2023-05-10T01:48:42;38.65;;;13.65;;
23539;SDS011;11947;50.810;4.394;2023-05-10T01:51:15;36.97;;;14.18;;
23539;SDS011;11947;50.810;4.394;2023-05-10T01:53:46;37.15;;;14.55;;
23539;SDS011;11947;50.810;4.394;2023-05-10T01:56:13;36.97;;;13.38;;
23539;SDS011;11947;50.810;4.394;2023-05-10T01:58:40;36.75;;;14.93;;
23539;SDS011;11947;50.810;4.394;2023-05-10T02:01:10;38.67;;;15.02;;
23539;SDS011;11947;50.810;4.394;2023-05-10T02:03:38;37.15;;;14.75;;
23539;SDS011;11947;50.810;4.394;2023-05-10T02:06:06;39.80;;;15.25;;
23539;SDS011;11947;50.810;4.394;2023-05-10T02:08:34;37.40;;;15.23;;
23539;SDS011;11947;50.810;4.394;2023-05-10T02:11:02;37.03;;;15.15;;
23539;SDS011;11947;50.810;4.394;2023-05-10T02:13:29;46.40;;;15.70;;
23539;SDS011;11947;50.810;4.394;2023-05-10T02:15:57;37.90;;;14.90;;
23539;SDS011;11947;50.810;4.394;2023-05-10T02:18:24;40.55;;;14.70;;
23539;SDS011;11947;50.810;4.394;2023-05-10T02:20:52;39.05;;;14.50;;
23539;SDS011;11947;50.810;4.394;2023-05-10T02:23:19;39.65;;;14.27;;
23539;SDS011;11947;50.810;4.394;2023-05-10T02:25:46;36.40;;;14.23;;
23539;SDS011;11947;50.810;4.394;2023-05-10T02:28:14;42.67;;;14.60;;
23539;SDS011;11947;50.810;4.394;2023-05-10T02:30:42;38.30;;;13.18;;
23539;SDS011;11947;50.810;4.394;2023-05-10T02:33:08;42.63;;;14.02;;
23539;SDS011;11947;50.810;4.394;2023-05-10T02:35:34;36.25;;;13.60;;
23539;SDS011;11947;50.810;4.394;2023-05-10T02:38:01;37.20;;;13.05;;
23539;SDS011;11947;50.810;4.394;2023-05-10T02:40:29;34.58;;;12.90;;
23539;SDS011;11947;50.810;4.394;2023-05-10T02:42:56;37.10;;;12.75;;
23539;SDS011;11947;50.810;4.394;2023-05-10T02:45:25;34.97;;;12.10;;
23539;SDS011;11947;50.810;4.394;2023-05-10T02:47:54;34.65;;;12.13;;
23539;SDS011;11947;50.810;4.394;2023-05-10T02:50:20;36.78;;;12.38;;
23539;SDS011;11947;50.810;4.394;2023-05-10T02:52:49;35.33;;;12.32;;
23539;SDS011;11947;50.810;4.394;2023-05-10T02:55:19;35.70;;;11.13;;
23539;SDS011;11947;50.810;4.394;2023-05-10T02:57:57;34.05;;;12.23;;
23539;SDS011;11947;50.810;4.394;2023-05-10T03:00:25;39.65;;;12.43;;
23539;SDS011;11947;50.810;4.394;2023-05-10T03:02:51;31.70;;;11.20;;
23539;SDS011;11947;50.810;4.394;2023-05-10T03:05:17;35.53;;;12.73;;
23539;SDS011;11947;50.810;4.394;2023-05-10T03:07:43;32.45;;;11.85;;
23539;SDS011;11947;50.810;4.394;2023-05-10T03:10:10;38.00;;;12.85;;
23539;SDS011;11947;50.810;4.394;2023-05-10T03:18:07;39.17;;;13.20;;
23539;SDS011;11947;50.810;4.394;2023-05-10T03:20:57;38.67;;;13.15;;
23539;SDS011;11947;50.810;4.394;2023-05-10T03:23:43;39.70;;;13.52;;
23539;SDS011;11947;50.810;4.394;2023-05-10T03:26:13;36.50;;;12.88;;
23539;SDS011;11947;50.810;4.394;2023-05-10T03:28:48;39.85;;;12.73;;
23539;SDS011;11947;50.810;4.394;2023-05-10T03:31:16;40.83;;;13.88;;
23539;SDS011;11947;50.810;4.394;2023-05-10T03:33:49;40.05;;;13.68;;
23539;SDS011;11947;50.810;4.394;2023-05-10T03:36:16;46.70;;;14.40;;
23539;SDS011;11947;50.810;4.394;2023-05-10T03:38:41;46.00;;;14.43;;
23539;SDS011;11947;50.810;4.394;2023-05-10T03:41:07;47.10;;;14.95;;
23539;SDS011;11947;50.810;4.394;2023-05-10T03:43:33;43.10;;;14.73;;
23539;SDS011;11947;50.810;4.394;2023-05-10T03:46:01;47.88;;;14.02;;
23539;SDS011;11947;50.810;4.394;2023-05-10T03:48:27;42.13;;;14.10;;
23539;SDS011;11947;50.810;4.394;2023-05-10T03:50:53;43.58;;;13.90;;
23539;SDS011;11947;50.810;4.394;2023-05-10T03:53:18;49.25;;;14.45;;
23539;SDS011;11947;50.810;4.394;2023-05-10T03:55:44;47.33;;;15.43;;
23539;SDS011;11947;50.810;4.394;2023-05-10T03:58:13;61.70;;;16.27;;
23539;SDS011;11947;50.810;4.394;2023-05-10T04:00:38;48.90;;;15.38;;
23539;SDS011;11947;50.810;4.394;2023-05-10T04:03:08;52.17;;;15.75;;
23539;SDS011;11947;50.810;4.394;2023-05-10T04:05:35;46.40;;;16.10;;
23539;SDS011;11947;50.810;4.394;2023-05-10T04:08:01;47.45;;;15.77;;
23539;SDS011;11947;50.810;4.394;2023-05-10T04:10:27;56.50;;;14.75;;
23539;SDS011;11947;50.810;4.394;2023-05-10T04:12:53;52.00;;;16.45;;
23539;SDS011;11947;50.810;4.394;2023-05-10T04:15:18;55.22;;;16.15;;
23539;SDS011;11947;50.810;4.394;2023-05-10T04:17:44;49.38;;;15.20;;
23539;SDS011;11947;50.810;4.394;2023-05-10T04:20:10;58.03;;;16.55;;
23539;SDS011;11947;50.810;4.394;2023-05-10T04:22:36;56.47;;;16.40;;
23539;SDS011;11947;50.810;4.394;2023-05-10T04:25:02;55.72;;;16.27;;
23539;SDS011;11947;50.810;4.394;2023-05-10T04:27:27;52.50;;;15.82;;
23539;SDS011;11947;50.810;4.394;2023-05-10T04:29:53;49.20;;;15.68;;
23539;SDS011;11947;50.810;4.394;2023-05-10T04:32:19;64.55;;;16.90;;
23539;SDS011;11947;50.810;4.394;2023-05-10T04:34:45;52.80;;;17.17;;
23539;SDS011;11947;50.810;4.394;2023-05-10T04:37:11;58.85;;;17.00;;
23539;SDS011;11947;50.810;4.394;2023-05-10T04:39:36;58.28;;;16.25;;
23539;SDS011;11947;50.810;4.394;2023-05-10T04:42:02;55.25;;;16.45;;
23539;SDS011;11947;50.810;4.394;2023-05-10T04:44:28;55.10;;;15.88;;
23539;SDS011;11947;50.810;4.394;2023-05-10T04:46:54;52.38;;;15.55;;
23539;SDS011;11947;50.810;4.394;2023-05-10T04:49:20;40.67;;;13.20;;
23539;SDS011;11947;50.810;4.394;2023-05-10T04:51:46;38.50;;;13.13;;
23539;SDS011;11947;50.810;4.394;2023-05-10T04:54:12;35.92;;;12.23;;
23539;SDS011;11947;50.810;4.394;2023-05-10T04:56:37;32.63;;;11.13;;
23539;SDS011;11947;50.810;4.394;2023-05-10T04:59:03;40.42;;;11.48;;
23539;SDS011;11947;50.810;4.394;2023-05-10T05:01:29;30.95;;;10.98;;
23539;SDS011;11947;50.810;4.394;2023-05-10T05:03:54;32.63;;;11.35;;
23539;SDS011;11947;50.810;4.394;2023-05-10T05:06:20;28.85;;;10.60;;
23539;SDS011;11947;50.810;4.394;2023-05-10T05:08:46;30.92;;;11.23;;
23539;SDS011;11947;50.810;4.394;2023-05-10T05:11:11;33.35;;;11.32;;
23539;SDS011;11947;50.810;4.394;2023-05-10T05:13:37;30.88;;;10.65;;
23539;SDS011;11947;50.810;4.394;2023-05-10T05:16:03;33.08;;;10.23;;
23539;SDS011;11947;50.810;4.394;2023-05-10T05:18:30;30.75;;;11.18;;
23539;SDS011;11947;50.810;4.394;2023-05-10T05:20:55;33.58;;;11.52;;
23539;SDS011;11947;50.810;4.394;2023-05-10T05:23:21;34.17;;;11.68;;
23539;SDS011;11947;50.810;4.394;2023-05-10T05:25:49;36.08;;;11.43;;
23539;SDS011;11947;50.810;4.394;2023-05-10T05:28:19;34.17;;;10.77;;
23539;SDS011;11947;50.810;4.394;2023-05-10T05:30:47;34.05;;;11.02;;
23539;SDS011;11947;50.810;4.394;2023-05-10T05:33:13;29.48;;;11.27;;
23539;SDS011;11947;50.810;4.394;2023-05-10T05:35:40;33.05;;;12.13;;
23539;SDS011;11947;50.810;4.394;2023-05-10T05:38:07;39.80;;;11.65;;
23539;SDS011;11947;50.810;4.394;2023-05-10T05:40:33;35.92;;;12.23;;
23539;SDS011;11947;50.810;4.394;2023-05-10T05:42:59;34.65;;;11.73;;
23539;SDS011;11947;50.810;4.394;2023-05-10T05:45:24;35.65;;;11.55;;
23539;SDS011;11947;50.810;4.394;2023-05-10T05:47:50;33.80;;;11.80;;
23539;SDS011;11947;50.810;4.394;2023-05-10T05:50:16;22.58;;;9.20;;
23539;SDS011;11947;50.810;4.394;2023-05-10T05:52:41;21.83;;;8.48;;
23539;SDS011;11947;50.810;4.394;2023-05-10T05:55:07;24.33;;;7.90;;
23539;SDS011;11947;50.810;4.394;2023-05-10T05:57:33;22.70;;;8.07;;
23539;SDS011;11947;50.810;4.394;2023-05-10T05:59:58;20.00;;;8.13;;
23539;SDS011;11947;50.810;4.394;2023-05-10T06:02:24;22.63;;;7.35;;
23539;SDS011;11947;50.810;4.394;2023-05-10T06:04:50;19.20;;;6.47;;
23539;SDS011;11947;50.810;4.394;2023-05-10T06:07:15;19.13;;;6.65;;
23539;SDS011;11947;50.810;4.394;2023-05-10T06:09:41;18.00;;;6.80;;
23539;SDS011;11947;50.810;4.394;2023-05-10T06:12:07;16.75;;;6.63;;
23539;SDS011;11947;50.810;4.394;2023-05-10T06:14:32;15.90;;;6.80;;
23539;SDS011;11947;50.810;4.394;2023-05-10T06:16:58;16.77;;;6.53;;
23539;SDS011;11947;50.810;4.394;2023-05-10T06:19:25;18.73;;;6.55;;
23539;SDS011;11947;50.810;4.394;2023-05-10T06:21:51;20.80;;;7.40;;
23539;SDS011;11947;50.810;4.394;2023-05-10T06:24:17;23.05;;;7.45;;
23539;SDS011;11947;50.810;4.394;2023-05-10T06:26:42;25.35;;;7.45;;
23539;SDS011;11947;50.810;4.394;2023-05-10T06:29:08;19.45;;;7.53;;
23539;SDS011;11947;50.810;4.394;2023-05-10T06:31:33;19.02;;;7.35;;
23539;SDS011;11947;50.810;4.394;2023-05-10T06:33:59;16.90;;;7.20;;
23539;SDS011;11947;50.810;4.394;2023-05-10T06:36:25;20.60;;;7.43;;
23539;SDS011;11947;50.810;4.394;2023-05-10T06:38:52;18.05;;;7.50;;
23539;SDS011;11947;50.810;4.394;2023-05-10T06:41:17;19.20;;;7.05;;
23539;SDS011;11947;50.810;4.394;2023-05-10T06:43:43;22.13;;;7.35;;
23539;SDS011;11947;50.810;4.394;2023-05-10T06:46:09;15.40;;;6.40;;
23539;SDS011;11947;50.810;4.394;2023-05-10T06:48:34;18.40;;;6.28;;
23539;SDS011;11947;50.810;4.394;2023-05-10T06:51:00;15.85;;;5.78;;
23539;SDS011;11947;50.810;4.394;2023-05-10T06:53:26;12.57;;;5.45;;
23539;SDS011;11947;50.810;4.394;2023-05-10T06:55:52;11.20;;;5.07;;
23539;SDS011;11947;50.810;4.394;2023-05-10T06:58:17;15.73;;;5.68;;
23539;SDS011;11947;50.810;4.394;2023-05-10T07:00:43;13.93;;;5.22;;
23539;SDS011;11947;50.810;4.394;2023-05-10T07:03:10;17.00;;;6.25;;
23539;SDS011;11947;50.810;4.394;2023-05-10T07:05:36;14.00;;;6.22;;
23539;SDS011;11947;50.810;4.394;2023-05-10T07:08:01;19.60;;;6.55;;
23539;SDS011;11947;50.810;4.394;2023-05-10T07:10:27;14.57;;;6.95;;
23539;SDS011;11947;50.810;4.394;2023-05-10T07:12:53;15.52;;;6.88;;
23539;SDS011;11947;50.810;4.394;2023-05-10T07:15:18;19.13;;;7.13;;
23539;SDS011;11947;50.810;4.394;2023-05-10T07:17:44;20.75;;;7.93;;
23539;SDS011;11947;50.810;4.394;2023-05-10T07:20:10;18.58;;;7.40;;
23539;SDS011;11947;50.810;4.394;2023-05-10T07:22:36;23.58;;;8.20;;
23539;SDS011;11947;50.810;4.394;2023-05-10T07:25:02;23.40;;;8.68;;
23539;SDS011;11947;50.810;4.394;2023-05-10T07:27:27;20.08;;;8.20;;
23539;SDS011;11947;50.810;4.394;2023-05-10T07:29:53;20.92;;;8.60;;
23539;SDS011;11947;50.810;4.394;2023-05-10T07:32:19;23.15;;;8.48;;
23539;SDS011;11947;50.810;4.394;2023-05-10T07:34:45;24.20;;;9.02;;
23539;SDS011;11947;50.810;4.394;2023-05-10T07:37:11;23.50;;;9.05;;
23539;SDS011;11947;50.810;4.394;2023-05-10T07:39:37;28.50;;;9.55;;
23539;SDS011;11947;50.810;4.394;2023-05-10T07:42:02;27.95;;;9.13;;
23539;SDS011;11947;50.810;4.394;2023-05-10T07:44:28;25.15;;;9.38;;
23539;SDS011;11947;50.810;4.394;2023-05-10T07:46:54;21.92;;;8.60;;
23539;SDS011;11947;50.810;4.394;2023-05-10T07:49:20;21.27;;;8.63;;
23539;SDS011;11947;50.810;4.394;2023-05-10T07:51:49;23.52;;;8.75;;
23539;SDS011;11947;50.810;4.394;2023-05-10T07:54:15;17.08;;;7.57;;
23539;SDS011;11947;50.810;4.394;2023-05-10T07:56:40;23.52;;;8.27;;
23539;SDS011;11947;50.810;4.394;2023-05-10T07:59:14;21.77;;;9.25;;
23539;SDS011;11947;50.810;4.394;2023-05-10T08:01:40;12.43;;;6.93;;
23539;SDS011;11947;50.810;4.394;2023-05-10T08:04:07;18.63;;;7.40;;
23539;SDS011;11947;50.810;4.394;2023-05-10T08:06:33;18.00;;;6.50;;
23539;SDS011;11947;50.810;4.394;2023-05-10T08:08:59;16.85;;;7.47;;
23539;SDS011;11947;50.810;4.394;2023-05-10T08:11:25;16.30;;;5.97;;
23539;SDS011;11947;50.810;4.394;2023-05-10T08:13:52;13.18;;;6.55;;
23539;SDS011;11947;50.810;4.394;2023-05-10T08:16:18;13.07;;;6.38;;
23539;SDS011;11947;50.810;4.394;2023-05-10T08:18:44;16.85;;;6.03;;
23539;SDS011;11947;50.810;4.394;2023-05-10T08:21:11;12.40;;;5.82;;
23539;SDS011;11947;50.810;4.394;2023-05-10T08:23:38;13.65;;;5.40;;
23539;SDS011;11947;50.810;4.394;2023-05-10T08:26:04;12.80;;;5.97;;
23539;SDS011;11947;50.810;4.394;2023-05-10T08:28:30;13.40;;;6.00;;
23539;SDS011;11947;50.810;4.394;2023-05-10T08:30:55;16.05;;;5.90;;
23539;SDS011;11947;50.810;4.394;2023-05-10T08:33:21;13.75;;;5.65;;
23539;SDS011;11947;50.810;4.394;2023-05-10T08:35:47;15.32;;;7.07;;
23539;SDS011;11947;50.810;4.394;2023-05-10T08:38:12;15.25;;;6.13;;
23539;SDS011;11947;50.810;4.394;2023-05-10T08:40:39;11.63;;;5.70;;
23539;SDS011;11947;50.810;4.394;2023-05-10T08:43:08;18.70;;;8.73;;
23539;SDS011;11947;50.810;4.394;2023-05-10T08:45:39;14.18;;;6.35;;
23539;SDS011;11947;50.810;4.394;2023-05-10T08:48:06;18.85;;;7.50;;
23539;SDS011;11947;50.810;4.394;2023-05-10T08:50:36;15.00;;;6.43;;
23539;SDS011;11947;50.810;4.394;2023-05-10T08:53:08;12.52;;;6.40;;
23539;SDS011;11947;50.810;4.394;2023-05-10T08:58:03;23.90;;;10.20;;
23539;SDS011;11947;50.810;4.394;2023-05-10T09:00:30;15.65;;;7.82;;
23539;SDS011;11947;50.810;4.394;2023-05-10T09:02:59;12.48;;;5.85;;
23539;SDS011;11947;50.810;4.394;2023-05-10T09:05:26;11.95;;;5.80;;
23539;SDS011;11947;50.810;4.394;2023-05-10T09:07:52;13.82;;;6.15;;
23539;SDS011;11947;50.810;4.394;2023-05-10T09:10:18;12.75;;;5.90;;
23539;SDS011;11947;50.810;4.394;2023-05-10T09:12:45;19.42;;;5.65;;
23539;SDS011;11947;50.810;4.394;2023-05-10T09:15:11;14.77;;;5.75;;
23539;SDS011;11947;50.810;4.394;2023-05-10T09:17:40;13.60;;;6.07;;
23539;SDS011;11947;50.810;4.394;2023-05-10T09:20:07;13.05;;;5.78;;
23539;SDS011;11947;50.810;4.394;2023-05-10T09:22:33;13.60;;;6.22;;
23539;SDS011;11947;50.810;4.394;2023-05-10T09:25:09;11.68;;;5.80;;
23539;SDS011;11947;50.810;4.394;2023-05-10T09:27:36;14.23;;;6.38;;
23539;SDS011;11947;50.810;4.394;2023-05-10T09:30:04;15.55;;;7.40;;
23539;SDS011;11947;50.810;4.394;2023-05-10T09:32:44;13.57;;;6.95;;
23539;SDS011;11947;50.810;4.394;2023-05-10T09:35:11;11.30;;;5.90;;
23539;SDS011;11947;50.810;4.394;2023-05-10T09:37:39;13.15;;;5.63;;
23539;SDS011;11947;50.810;4.394;2023-05-10T09:40:06;13.18;;;6.47;;
23539;SDS011;11947;50.810;4.394;2023-05-10T09:42:36;12.05;;;6.13;;
23539;SDS011;11947;50.810;4.394;2023-05-10T09:45:05;11.20;;;6.03;;
23539;SDS011;11947;50.810;4.394;2023-05-10T09:47:32;13.20;;;5.65;;
23539;SDS011;11947;50.810;4.394;2023-05-10T09:49:59;8.52;;;5.03;;
23539;SDS011;11947;50.810;4.394;2023-05-10T09:52:28;9.40;;;5.38;;
23539;SDS011;11947;50.810;4.394;2023-05-10T09:55:12;9.85;;;5.32;;
23539;SDS011;11947;50.810;4.394;2023-05-10T09:57:38;8.82;;;4.90;;
23539;SDS011;11947;50.810;4.394;2023-05-10T10:00:04;10.25;;;5.13;;
23539;SDS011;11947;50.810;4.394;2023-05-10T10:02:31;10.15;;;5.18;;
23539;SDS011;11947;50.810;4.394;2023-05-10T10:04:57;13.07;;;5.00;;
23539;SDS011;11947;50.810;4.394;2023-05-10T10:07:25;11.68;;;5.35;;
23539;SDS011;11947;50.810;4.394;2023-05-10T10:09:51;9.02;;;5.05;;
23539;SDS011;11947;50.810;4.394;2023-05-10T10:12:18;8.95;;;4.82;;
23539;SDS011;11947;50.810;4.394;2023-05-10T10:14:48;8.55;;;4.97;;
23539;SDS011;11947;50.810;4.394;2023-05-10T10:17:15;10.65;;;5.88;;
23539;SDS011;11947;50.810;4.394;2023-05-10T10:19:42;8.95;;;4.57;;
23539;SDS011;11947;50.810;4.394;2023-05-10T10:22:08;8.88;;;4.53;;
23539;SDS011;11947;50.810;4.394;2023-05-10T10:24:36;9.00;;;4.88;;
23539;SDS011;11947;50.810;4.394;2023-05-10T10:27:23;8.05;;;4.68;;
23539;SDS011;11947;50.810;4.394;2023-05-10T10:32:42;9.15;;;4.85;;
23539;SDS011;11947;50.810;4.394;2023-05-10T10:37:47;10.27;;;4.80;;
23539;SDS011;11947;50.810;4.394;2023-05-10T10:40:25;9.18;;;4.60;;
23539;SDS011;11947;50.810;4.394;2023-05-10T10:42:51;9.70;;;4.47;;
23539;SDS011;11947;50.810;4.394;2023-05-10T10:45:17;9.50;;;5.57;;
23539;SDS011;11947;50.810;4.394;2023-05-10T10:47:43;10.73;;;5.90;;
23539;SDS011;11947;50.810;4.394;2023-05-10T10:50:10;10.07;;;5.72;;
23539;SDS011;11947;50.810;4.394;2023-05-10T10:52:41;12.15;;;6.93;;
23539;SDS011;11947;50.810;4.394;2023-05-10T10:55:17;10.80;;;5.57;;
23539;SDS011;11947;50.810;4.394;2023-05-10T10:57:45;8.75;;;5.65;;
23539;SDS011;11947;50.810;4.394;2023-05-10T11:00:19;10.48;;;5.75;;
23539;SDS011;11947;50.810;4.394;2023-05-10T11:02:57;11.15;;;6.13;;
23539;SDS011;11947;50.810;4.394;2023-05-10T11:05:33;10.20;;;5.70;;
23539;SDS011;11947;50.810;4.394;2023-05-10T11:08:09;8.88;;;5.70;;
23539;SDS011;11947;50.810;4.394;2023-05-10T11:10:40;9.70;;;5.45;;
23539;SDS011;11947;50.810;4.394;2023-05-10T11:13:14;8.65;;;5.28;;
23539;SDS011;11947;50.810;4.394;2023-05-10T11:15:40;10.85;;;6.95;;
23539;SDS011;11947;50.810;4.394;2023-05-10T11:18:20;8.88;;;5.70;;
23539;SDS011;11947;50.810;4.394;2023-05-10T11:20:58;8.73;;;5.13;;
23539;SDS011;11947;50.810;4.394;2023-05-10T11:23:32;10.13;;;5.55;;
23539;SDS011;11947;50.810;4.394;2023-05-10T11:26:12;9.30;;;5.05;;
23539;SDS011;11947;50.810;4.394;2023-05-10T11:28:42;8.82;;;4.90;;
23539;SDS011;11947;50.810;4.394;2023-05-10T11:31:09;6.97;;;5.30;;
23539;SDS011;11947;50.810;4.394;2023-05-10T11:33:45;8.32;;;4.68;;
23539;SDS011;11947;50.810;4.394;2023-05-10T11:36:16;6.90;;;4.25;;
23539;SDS011;11947;50.810;4.394;2023-05-10T11:38:43;5.80;;;4.10;;
23539;SDS011;11947;50.810;4.394;2023-05-10T11:41:09;5.10;;;3.72;;
23539;SDS011;11947;50.810;4.394;2023-05-10T11:43:36;7.55;;;3.78;;
23539;SDS011;11947;50.810;4.394;2023-05-10T11:46:06;5.28;;;3.85;;
23539;SDS011;11947;50.810;4.394;2023-05-10T11:48:37;6.47;;;4.20;;
23539;SDS011;11947;50.810;4.394;2023-05-10T11:51:04;8.15;;;4.15;;
23539;SDS011;11947;50.810;4.394;2023-05-10T11:53:31;6.18;;;4.10;;
23539;SDS011;11947;50.810;4.394;2023-05-10T11:56:07;6.47;;;3.65;;
23539;SDS011;11947;50.810;4.394;2023-05-10T11:58:34;7.63;;;3.80;;
23539;SDS011;11947;50.810;4.394;2023-05-10T12:01:01;7.32;;;4.15;;
23539;SDS011;11947;50.810;4.394;2023-05-10T12:03:28;6.32;;;4.10;;
23539;SDS011;11947;50.810;4.394;2023-05-10T12:05:55;5.80;;;4.20;;
23539;SDS011;11947;50.810;4.394;2023-05-10T12:08:22;6.22;;;4.38;;
23539;SDS011;11947;50.810;4.394;2023-05-10T12:10:51;4.88;;;3.65;;
23539;SDS011;11947;50.810;4.394;2023-05-10T12:13:17;8.55;;;4.30;;
23539;SDS011;11947;50.810;4.394;2023-05-10T12:15:45;7.25;;;4.47;;
23539;SDS011;11947;50.810;4.394;2023-05-10T12:18:11;7.38;;;4.40;;
23539;SDS011;11947;50.810;4.394;2023-05-10T12:20:38;7.95;;;4.82;;
23539;SDS011;11947;50.810;4.394;2023-05-10T12:23:04;8.68;;;5.03;;
23539;SDS011;11947;50.810;4.394;2023-05-10T12:25:33;6.47;;;4.47;;
23539;SDS011;11947;50.810;4.394;2023-05-10T12:28:00;7.65;;;4.93;;
23539;SDS011;11947;50.810;4.394;2023-05-10T12:30:29;6.90;;;4.65;;
23539;SDS011;11947;50.810;4.394;2023-05-10T12:33:07;7.80;;;4.03;;
23539;SDS011;11947;50.810;4.394;2023-05-10T12:35:43;7.05;;;4.25;;
23539;SDS011;11947;50.810;4.394;2023-05-10T12:41:10;8.27;;;4.50;;
23539;SDS011;11947;50.810;4.394;2023-05-10T12:43:37;7.97;;;4.95;;
23539;SDS011;11947;50.810;4.394;2023-05-10T12:46:10;10.68;;;5.80;;
23539;SDS011;11947;50.810;4.394;2023-05-10T12:48:37;13.20;;;6.10;;
23539;SDS011;11947;50.810;4.394;2023-05-10T12:51:04;10.07;;;6.22;;
23539;SDS011;11947;50.810;4.394;2023-05-10T12:53:33;11.18;;;5.38;;
23539;SDS011;11947;50.810;4.394;2023-05-10T12:55:59;10.20;;;5.60;;
23539;SDS011;11947;50.810;4.394;2023-05-10T12:58:25;10.35;;;6.50;;
23539;SDS011;11947;50.810;4.394;2023-05-10T13:00:50;10.40;;;6.03;;
23539;SDS011;11947;50.810;4.394;2023-05-10T13:03:16;9.75;;;5.55;;
23539;SDS011;11947;50.810;4.394;2023-05-10T13:05:42;9.85;;;6.35;;
23539;SDS011;11947;50.810;4.394;2023-05-10T13:08:08;9.82;;;6.03;;
23539;SDS011;11947;50.810;4.394;2023-05-10T13:10:33;9.52;;;5.30;;
23539;SDS011;11947;50.810;4.394;2023-05-10T13:12:59;10.07;;;5.35;;
23539;SDS011;11947;50.810;4.394;2023-05-10T13:15:25;9.40;;;5.05;;
23539;SDS011;11947;50.810;4.394;2023-05-10T13:17:51;8.52;;;5.30;;
23539;SDS011;11947;50.810;4.394;2023-05-10T13:20:18;7.10;;;5.00;;
23539;SDS011;11947;50.810;4.394;2023-05-10T13:22:43;6.63;;;5.00;;
23539;SDS011;11947;50.810;4.394;2023-05-10T13:25:10;9.27;;;5.10;;
23539;SDS011;11947;50.810;4.394;2023-05-10T13:27:36;7.65;;;5.25;;
23539;SDS011;11947;50.810;4.394;2023-05-10T13:30:03;9.38;;;4.70;;
23539;SDS011;11947;50.810;4.394;2023-05-10T13:32:29;11.25;;;5.32;;
23539;SDS011;11947;50.810;4.394;2023-05-10T13:34:55;9.10;;;4.97;;
23539;SDS011;11947;50.810;4.394;2023-05-10T13:37:21;7.40;;;4.97;;
23539;SDS011;11947;50.810;4.394;2023-05-10T13:39:47;9.45;;;5.22;;
23539;SDS011;11947;50.810;4.394;2023-05-10T13:42:12;8.85;;;5.53;;
23539;SDS011;11947;50.810;4.394;2023-05-10T13:44:38;9.43;;;5.57;;
23539;SDS011;11947;50.810;4.394;2023-05-10T13:47:04;10.07;;;6.18;;
23539;SDS011;11947;50.810;4.394;2023-05-10T13:49:30;12.43;;;6.22;;
23539;SDS011;11947;50.810;4.394;2023-05-10T13:51:56;10.10;;;6.32;;
23539;SDS011;11947;50.810;4.394;2023-05-10T13:54:21;10.80;;;6.63;;
23539;SDS011;11947;50.810;4.394;2023-05-10T13:56:48;11.55;;;6.30;;
23539;SDS011;11947;50.810;4.394;2023-05-10T13:59:14;8.77;;;5.82;;
23539;SDS011;11947;50.810;4.394;2023-05-10T14:01:40;10.95;;;6.25;;
23539;SDS011;11947;50.810;4.394;2023-05-10T14:04:06;9.27;;;6.28;;
23539;SDS011;11947;50.810;4.394;2023-05-10T14:06:35;11.63;;;6.80;;
23539;SDS011;11947;50.810;4.394;2023-05-10T14:09:01;13.88;;;7.35;;
23539;SDS011;11947;50.810;4.394;2023-05-10T14:11:27;13.63;;;8.00;;
23539;SDS011;11947;50.810;4.394;2023-05-10T14:13:53;13.68;;;8.52;;
23539;SDS011;11947;50.810;4.394;2023-05-10T14:16:19;12.95;;;7.57;;
23539;SDS011;11947;50.810;4.394;2023-05-10T14:18:45;16.05;;;9.25;;
23539;SDS011;11947;50.810;4.394;2023-05-10T14:21:11;15.95;;;9.48;;
23539;SDS011;11947;50.810;4.394;2023-05-10T14:23:36;13.45;;;8.52;;
23539;SDS011;11947;50.810;4.394;2023-05-10T14:26:02;15.38;;;9.80;;
23539;SDS011;11947;50.810;4.394;2023-05-10T14:28:28;17.30;;;9.15;;
23539;SDS011;11947;50.810;4.394;2023-05-10T14:30:54;17.10;;;9.43;;
23539;SDS011;11947;50.810;4.394;2023-05-10T14:33:19;16.90;;;8.82;;
23539;SDS011;11947;50.810;4.394;2023-05-10T14:35:46;21.38;;;10.65;;
23539;SDS011;11947;50.810;4.394;2023-05-10T14:38:12;17.75;;;10.02;;
23539;SDS011;11947;50.810;4.394;2023-05-10T14:40:38;16.30;;;9.38;;
23539;SDS011;11947;50.810;4.394;2023-05-10T14:43:03;18.50;;;10.48;;
23539;SDS011;11947;50.810;4.394;2023-05-10T14:45:29;14.80;;;9.13;;
23539;SDS011;11947;50.810;4.394;2023-05-10T14:47:55;15.93;;;9.95;;
23539;SDS011;11947;50.810;4.394;2023-05-10T14:50:20;19.73;;;9.95;;
23539;SDS011;11947;50.810;4.394;2023-05-10T14:52:46;16.48;;;9.60;;
23539;SDS011;11947;50.810;4.394;2023-05-10T14:55:12;19.27;;;10.00;;
23539;SDS011;11947;50.810;4.394;2023-05-10T14:57:37;19.33;;;9.82;;
23539;SDS011;11947;50.810;4.394;2023-05-10T15:00:03;18.90;;;10.70;;
23539;SDS011;11947;50.810;4.394;2023-05-10T15:02:30;18.88;;;11.30;;